Terminal Aerodrome Forecast
Issued by NWS Atlanta, GA

Current Version | Previous Version | Text Only | Print | Product List | Glossary On
Versions: 1 2 3 4 5 6 7 8 9 10 11 12 13 14 15
628
FTUS42 KFFC 241120
TAFCSG
TAF
KCSG 241120Z 2412/2512 30005KT 6SM -DZ BKN012
      TEMPO 2412/2415 OVC008
     FM241500 30007KT P6SM BKN015
     FM241800 30008KT P6SM BKN035
     FM250200 35005KT P6SM OVC025=

USA.gov is the U.S. government's official web portal to all federal, state and local government web resources and services.